Time;durP1;ratioP1;P1;durP2;ratioP2;P2;SDS_P1;SDS_P2;PMS_P1;PMS_P2;Temp;Humidity;BMP_temperature;BMP_pressure;BME280_temperature;BME280_humidity;BME280_pressure;Samples;Min_cycle;Max_cycle;Signal;HPM_P1;HPM_P2
2023/11/30 00:02:06;;;;;;;0.70;0.70;;;;;;;2.04;100.00;100260.97;10440093;28;20532;-73
2023/11/30 00:07:10;;;;;;;0.82;0.82;;;;;;;1.93;100.00;100255.91;10457960;28;20074;-73
2023/11/30 00:12:10;;;;;;;1.73;1.67;;;;;;;1.82;100.00;100260.50;10441856;28;20037;-73
2023/11/30 00:17:11;;;;;;;2.13;2.10;;;;;;;1.76;100.00;100253.13;10458697;28;20445;-73
2023/11/30 00:22:11;;;;;;;0.70;0.70;;;;;;;1.72;100.00;100250.91;10457872;28;20070;-73
2023/11/30 00:27:11;;;;;;;1.52;1.52;;;;;;;1.72;100.00;100250.91;10457593;28;20067;-73
2023/11/30 00:32:12;;;;;;;0.80;0.80;;;;;;;1.72;100.00;100250.91;10456996;28;20040;-73
2023/11/30 00:37:12;;;;;;;2.78;2.58;;;;;;;1.75;100.00;100232.75;10457395;28;20040;-73
2023/11/30 00:42:12;;;;;;;1.10;1.10;;;;;;;1.73;100.00;100237.44;10456607;28;20056;-73
2023/11/30 00:47:13;;;;;;;2.63;2.45;;;;;;;1.64;100.00;100233.03;10457827;28;20504;-73
2023/11/30 00:52:13;;;;;;;0.80;0.80;;;;;;;1.54;100.00;100221.63;10456294;28;20075;-72
2023/11/30 00:57:14;;;;;;;0.80;0.80;;;;;;;1.44;100.00;100219.03;10455886;28;20029;-73
2023/11/30 01:02:14;;;;;;;0.68;0.68;;;;;;;1.38;100.00;100212.50;10456879;28;20044;-72
2023/11/30 01:07:14;;;;;;;0.77;0.77;;;;;;;1.32;100.00;100213.09;10454801;28;20072;-73
2023/11/30 01:12:15;;;;;;;0.73;0.73;;;;;;;1.28;100.00;100203.75;10455510;28;20071;-73
2023/11/30 01:17:15;;;;;;;0.70;0.70;;;;;;;1.21;100.00;100207.16;10438699;28;20029;-73
2023/11/30 01:22:16;;;;;;;0.70;0.70;;;;;;;1.06;100.00;100197.06;10455018;28;20120;-73
2023/11/30 01:27:16;;;;;;;0.90;0.90;;;;;;;0.99;100.00;100200.47;10454065;28;20068;-72
2023/11/30 01:32:17;;;;;;;2.45;2.35;;;;;;;0.93;100.00;100202.78;10455146;28;20049;-73
2023/11/30 01:37:17;;;;;;;0.70;0.70;;;;;;;0.86;100.00;100200.84;10437324;28;20144;-72
2023/11/30 01:42:17;;;;;;;0.90;0.90;;;;;;;0.86;100.00;100199.06;10455207;28;20465;-73
2023/11/30 01:47:18;;;;;;;3.15;3.05;;;;;;;0.75;100.00;100199.25;10455965;28;20029;-73
2023/11/30 01:52:18;;;;;;;0.85;0.85;;;;;;;0.68;100.00;100204.38;10455894;28;20045;-73
2023/11/30 01:57:18;;;;;;;0.60;0.60;;;;;;;0.64;100.00;100196.84;10452903;28;20060;-73
2023/11/30 02:02:19;;;;;;;1.10;1.10;;;;;;;0.56;100.00;100194.06;10455231;28;20045;-73
2023/11/30 02:07:20;;;;;;;0.70;0.70;;;;;;;0.52;100.00;100190.88;10454925;28;20135;-73
2023/11/30 02:12:20;;;;;;;0.88;0.88;;;;;;;0.51;100.00;100191.00;10454852;28;20437;-73
2023/11/30 02:17:21;;;;;;;0.50;0.50;;;;;;;0.47;100.00;100185.16;10453306;28;20044;-73
2023/11/30 02:22:21;;;;;;;1.77;1.77;;;;;;;0.49;100.00;100188.50;10453698;28;20116;-72
2023/11/30 02:27:21;;;;;;;0.75;0.75;;;;;;;0.48;100.00;100178.84;10452492;28;20084;-73
2023/11/30 02:32:22;;;;;;;0.70;0.70;;;;;;;0.56;100.00;100178.91;10452787;28;20052;-73
2023/11/30 02:37:22;;;;;;;0.90;0.90;;;;;;;0.59;100.00;100178.63;10455442;28;20393;-73
2023/11/30 02:42:22;;;;;;;1.20;1.20;;;;;;;0.63;100.00;100173.81;10437073;28;20037;-73
2023/11/30 02:47:23;;;;;;;0.80;0.80;;;;;;;0.65;100.00;100178.00;10453751;28;20033;-73
2023/11/30 02:52:23;;;;;;;0.80;0.80;;;;;;;0.60;100.00;100174.94;10454385;28;20403;-72
2023/11/30 02:57:24;;;;;;;1.33;1.33;;;;;;;0.60;100.00;100169.63;10453630;28;20032;-73
2023/11/30 03:02:24;;;;;;;0.80;0.80;;;;;;;0.65;100.00;100162.03;10453627;28;20037;-73
2023/11/30 03:07:24;;;;;;;0.80;0.80;;;;;;;0.61;100.00;100158.00;10458750;28;20475;-73
2023/11/30 03:12:25;;;;;;;2.97;2.75;;;;;;;0.60;100.00;100160.81;10460391;28;20116;-73
2023/11/30 03:17:25;;;;;;;1.35;1.35;;;;;;;0.51;100.00;100159.91;10442859;28;20037;-73
2023/11/30 03:22:26;;;;;;;1.70;1.70;;;;;;;0.45;100.00;100165.81;10461971;28;20090;-73
2023/11/30 03:27:26;;;;;;;0.90;0.90;;;;;;;0.46;100.00;100159.50;10460151;28;20132;-73
2023/11/30 03:32:26;;;;;;;2.70;2.50;;;;;;;0.50;100.00;100163.53;10461114;28;20078;-72
2023/11/30 03:37:27;;;;;;;1.20;1.20;;;;;;;0.57;100.00;100167.25;10460518;28;20083;-73
2023/11/30 03:42:27;;;;;;;0.90;0.90;;;;;;;0.65;100.00;100166.53;10460382;28;20048;-73
2023/11/30 03:47:27;;;;;;;0.90;0.90;;;;;;;0.69;100.00;100160.72;10459843;28;20083;-73
2023/11/30 03:52:28;;;;;;;0.70;0.70;;;;;;;0.75;100.00;100161.13;10460894;28;20044;-73
2023/11/30 03:57:28;;;;;;;1.25;1.25;;;;;;;0.77;100.00;100167.97;10459165;28;20029;-73
2023/11/30 04:02:29;;;;;;;1.20;1.20;;;;;;;0.80;100.00;100167.69;10457856;28;20096;-72
2023/11/30 04:07:29;;;;;;;1.20;1.20;;;;;;;0.76;100.00;100168.13;10458678;28;20345;-73
2023/11/30 04:12:29;;;;;;;0.90;0.90;;;;;;;0.69;100.00;100168.72;10459534;28;20118;-74
2023/11/30 04:17:30;;;;;;;5.28;4.93;;;;;;;0.71;100.00;100160.59;10457921;28;20037;-74
2023/11/30 04:22:31;;;;;;;0.90;0.90;;;;;;;0.71;100.00;100165.09;10459260;28;20447;-73
2023/11/30 04:27:31;;;;;;;1.10;1.10;;;;;;;0.67;100.00;100162.72;10457042;28;20106;-73
2023/11/30 04:32:31;;;;;;;1.85;1.77;;;;;;;0.64;100.00;100165.69;10458152;28;20045;-73
2023/11/30 04:37:32;;;;;;;0.98;0.98;;;;;;;0.64;100.00;100165.69;10457857;28;20032;-73
2023/11/30 04:42:32;;;;;;;1.10;1.10;;;;;;;0.64;100.00;100160.38;10456319;28;20460;-72
2023/11/30 04:47:33;;;;;;;0.90;0.90;;;;;;;0.63;100.00;100161.34;10457714;28;20037;-73
2023/11/30 04:52:33;;;;;;;1.30;1.30;;;;;;;0.55;100.00;100166.59;10457581;28;20379;-73
2023/11/30 04:57:33;;;;;;;0.90;0.90;;;;;;;0.47;100.00;100167.31;10457796;28;20041;-73
2023/11/30 05:02:36;;;;;;;0.82;0.82;;;;;;;0.53;100.00;100168.56;10456613;28;20067;-73
2023/11/30 05:07:36;;;;;;;1.10;1.10;;;;;;;0.51;100.00;100170.56;10455724;28;20032;-73
2023/11/30 05:12:36;;;;;;;0.93;0.93;;;;;;;0.39;100.00;100174.41;10456940;28;20044;-73
2023/11/30 05:17:37;;;;;;;1.17;1.17;;;;;;;0.36;100.00;100182.72;10455515;28;20036;-73
2023/11/30 05:22:38;;;;;;;1.00;1.00;;;;;;;0.41;100.00;100175.09;10455270;28;20041;-73
2023/11/30 05:27:38;;;;;;;1.02;1.02;;;;;;;0.42;100.00;100171.47;10455454;28;20049;-74
2023/11/30 05:32:38;;;;;;;0.82;0.82;;;;;;;0.42;100.00;100160.81;10453830;28;20067;-73
2023/11/30 05:37:39;;;;;;;2.80;2.45;;;;;;;0.40;100.00;100158.28;10436979;28;20045;-73
2023/11/30 05:42:40;;;;;;;0.90;0.90;;;;;;;0.53;100.00;100171.22;10453505;28;20116;-72
2023/11/30 05:47:40;;;;;;;2.40;2.25;;;;;;;0.61;100.00;100171.31;10454549;28;20404;-72
2023/11/30 05:52:41;;;;;;;1.00;1.00;;;;;;;0.59;100.00;100172.47;10455515;28;20041;-73
2023/11/30 05:57:41;;;;;;;0.90;0.90;;;;;;;0.38;100.00;100175.38;10436562;28;20033;-72
2023/11/30 06:02:41;;;;;;;0.77;0.77;;;;;;;0.35;100.00;100189.00;10453692;28;20040;-73
2023/11/30 06:07:44;;;;;;;1.33;1.33;;;;;;;0.42;100.00;100187.44;10454027;28;20083;-72
2023/11/30 06:12:46;;;;;;;0.70;0.70;;;;;;;0.49;100.00;100196.50;10454038;28;20031;-72
2023/11/30 06:17:46;;;;;;;1.15;1.15;;;;;;;0.56;100.00;100207.38;10452943;28;20043;-73
2023/11/30 06:22:47;;;;;;;0.98;0.98;;;;;;;0.50;100.00;100206.16;10454388;28;20444;-72
2023/11/30 06:27:47;;;;;;;1.33;1.33;;;;;;;0.51;100.00;100207.00;10452938;28;20084;-73
2023/11/30 06:32:47;;;;;;;0.88;0.88;;;;;;;0.44;100.00;100212.06;10452498;28;20041;-72
2023/11/30 06:37:48;;;;;;;0.80;0.80;;;;;;;0.53;100.00;100221.84;10454168;28;20113;-72
2023/11/30 06:42:48;;;;;;;1.40;1.40;;;;;;;0.61;100.00;100221.94;10459611;28;20037;-72
2023/11/30 06:47:48;;;;;;;2.47;2.38;;;;;;;0.67;100.00;100212.50;10461881;28;20029;-72
2023/11/30 06:52:49;;;;;;;0.90;0.90;;;;;;;0.69;100.00;100219.34;10462314;28;20044;-73
2023/11/30 06:57:49;;;;;;;2.08;2.05;;;;;;;0.74;100.00;100226.06;10461140;28;20045;-72
2023/11/30 07:02:50;;;;;;;1.92;1.88;;;;;;;0.82;100.00;100223.47;10460255;28;20045;-73
2023/11/30 07:07:50;;;;;;;0.77;0.77;;;;;;;0.93;100.00;100228.59;10460818;28;20521;-72
2023/11/30 07:12:50;;;;;;;0.60;0.60;;;;;;;0.92;100.00;100221.56;10460082;28;20033;-72
2023/11/30 07:17:51;;;;;;;1.80;1.80;;;;;;;0.77;100.00;100237.28;10461115;28;20033;-72
2023/11/30 07:22:51;;;;;;;1.83;1.83;;;;;;;0.66;100.00;100240.13;10459296;28;20033;-72
2023/11/30 07:27:54;;;;;;;1.85;1.85;;;;;;;0.65;100.00;100233.13;10458872;28;20065;-72
2023/11/30 07:32:55;;;;;;;3.85;3.40;;;;;;;0.66;100.00;100221.47;10459778;28;20099;-72
2023/11/30 07:37:55;;;;;;;1.15;1.15;;;;;;;0.68;100.00;100231.00;10460312;28;20478;-73
2023/11/30 07:42:56;;;;;;;0.90;0.90;;;;;;;0.54;100.00;100236.81;10458472;28;20469;-72
2023/11/30 07:47:57;;;;;;;3.53;3.35;;;;;;;0.58;100.00;100235.56;10460605;28;20057;-72
2023/11/30 07:52:57;;;;;;;1.58;1.58;;;;;;;0.53;100.00;100229.00;10458550;28;20037;-72
2023/11/30 07:57:58;;;;;;;2.13;2.00;;;;;;;0.58;100.00;100242.72;10458011;28;20036;-72
2023/11/30 08:02:58;;;;;;;1.30;1.30;;;;;;;0.58;100.00;100235.56;10459653;28;20033;-72
2023/11/30 08:07:59;;;;;;;1.13;1.13;;;;;;;0.50;100.00;100235.47;10457908;28;20106;-72
2023/11/30 08:12:59;;;;;;;4.82;4.40;;;;;;;0.55;100.00;100227.88;10458205;28;20036;-72
2023/11/30 08:17:59;;;;;;;2.35;2.25;;;;;;;0.61;100.00;100232.59;10456826;28;20107;-72
2023/11/30 08:23:00;;;;;;;0.80;0.80;;;;;;;0.58;100.00;100232.91;10458829;28;20040;-72
2023/11/30 08:28:00;;;;;;;1.10;1.10;;;;;;;0.59;100.00;100229.25;10457368;28;20487;-72
2023/11/30 08:33:01;;;;;;;0.82;0.82;;;;;;;0.47;100.00;100225.94;10457792;28;20143;-72
2023/11/30 08:38:02;;;;;;;0.65;0.65;;;;;;;0.59;100.00;100233.72;10457503;28;20144;-73
2023/11/30 08:43:02;;;;;;;1.10;1.10;;;;;;;0.53;100.00;100224.50;10457143;28;20032;-73
2023/11/30 08:48:03;;;;;;;1.35;1.35;;;;;;;0.65;100.00;100219.81;10458195;28;20368;-72
2023/11/30 08:53:03;;;;;;;0.88;0.88;;;;;;;0.93;100.00;100220.59;10455190;28;20423;-72
2023/11/30 08:58:04;;;;;;;1.35;1.35;;;;;;;1.03;100.00;100218.69;10455013;28;20135;-73
2023/11/30 09:03:05;;;;;;;0.70;0.70;;;;;;;1.21;100.00;100217.84;10456409;28;20056;-72
2023/11/30 09:08:06;;;;;;;4.63;3.75;;;;;;;1.23;100.00;100226.53;10455314;28;20120;-72
2023/11/30 09:13:07;;;;;;;1.05;1.05;;;;;;;1.39;100.00;100218.66;10455617;28;20037;-72
2023/11/30 09:18:10;;;;;;;1.38;1.38;;;;;;;1.34;100.00;100226.28;10455148;28;20040;-72
2023/11/30 09:23:10;;;;;;;1.95;1.95;;;;;;;1.36;100.00;100226.97;10456289;28;20075;-72
2023/11/30 09:28:11;;;;;;;0.95;0.95;;;;;;;1.54;100.00;100224.28;10454761;28;20053;-73
2023/11/30 09:33:11;;;;;;;2.25;2.20;;;;;;;1.61;100.00;100234.16;10456490;28;20048;-72
2023/11/30 09:38:12;;;;;;;0.88;0.88;;;;;;;1.79;100.00;100236.81;10455001;28;20400;-72
2023/11/30 09:43:16;;;;;;;4.57;4.18;;;;;;;1.76;100.00;100244.28;10454211;28;20071;-72
2023/11/30 09:48:17;;;;;;;3.13;3.03;;;;;;;1.79;100.00;100252.81;10454036;28;20129;-72
2023/11/30 09:53:17;;;;;;;0.80;0.80;;;;;;;2.00;100.00;100240.91;10456119;28;20072;-72
2023/11/30 09:58:17;;;;;;;2.65;2.55;;;;;;;2.15;100.00;100234.00;10454282;28;20043;-72
2023/11/30 10:03:19;;;;;;;0.80;0.80;;;;;;;2.24;100.00;100241.06;10454031;28;20048;-72
2023/11/30 10:08:20;;;;;;;1.02;1.02;;;;;;;2.32;100.00;100248.25;10454028;28;20429;-72
2023/11/30 10:13:20;;;;;;;1.42;1.42;;;;;;;2.11;100.00;100246.00;10454586;28;20045;-71
2023/11/30 10:18:21;;;;;;;1.42;1.42;;;;;;;2.07;100.00;100239.28;10460876;28;20373;-72
2023/11/30 10:23:21;;;;;;;5.28;5.07;;;;;;;2.03;100.00;100241.44;10462174;28;20064;-72
2023/11/30 10:28:22;;;;;;;2.38;2.38;;;;;;;2.27;100.00;100248.75;10461569;28;20446;-72
2023/11/30 10:33:23;;;;;;;1.23;1.23;;;;;;;2.38;100.00;100246.78;10461145;28;20052;-72
2023/11/30 10:38:28;;;;;;;1.00;1.00;;;;;;;2.47;100.00;100244.00;10460486;28;20041;-72
2023/11/30 10:43:29;;;;;;;3.20;3.00;;;;;;;2.48;100.00;100242.97;10461562;28;20041;-72
2023/11/30 10:48:29;;;;;;;2.45;2.35;;;;;;;2.48;100.00;100239.47;10459400;28;20116;-72
2023/11/30 10:53:52;;;;;;;0.60;0.60;;;;;;;2.43;100.00;100244.47;10460748;28;20044;-72
2023/11/30 10:58:53;;;;;;;0.88;0.88;;;;;;;2.46;100.00;100247.66;10460706;28;20032;-72
2023/11/30 11:03:56;;;;;;;1.02;1.02;;;;;;;2.47;100.00;100254.69;10459663;28;20041;-71
2023/11/30 11:09:01;;;;;;;0.80;0.80;;;;;;;2.55;100.00;100256.53;10460472;28;20322;-72
2023/11/30 11:14:02;;;;;;;0.90;0.90;;;;;;;2.63;100.00;100245.06;10460438;28;20148;-71
2023/11/30 11:19:03;;;;;;;1.25;1.25;;;;;;;2.98;100.00;100241.28;10459718;28;20406;-72
2023/11/30 11:24:04;;;;;;;1.02;1.02;;;;;;;3.13;100.00;100242.31;10458922;28;20033;-71
2023/11/30 11:29:05;;;;;;;1.10;1.10;;;;;;;3.18;100.00;100236.47;10459329;28;20053;-72
2023/11/30 11:34:06;;;;;;;2.00;1.90;;;;;;;3.02;100.00;100226.59;10459492;28;20061;-71
2023/11/30 11:39:06;;;;;;;4.68;4.03;;;;;;;2.61;100.00;100226.47;10457430;28;20479;-72
2023/11/30 11:44:08;;;;;;;5.03;4.82;;;;;;;2.28;100.00;100230.88;10459367;28;20044;-71
2023/11/30 11:49:09;;;;;;;2.65;2.55;;;;;;;2.45;100.00;100226.44;10458305;28;20085;-71
2023/11/30 11:54:19;;;;;;;2.75;2.65;;;;;;;2.30;100.00;100234.25;10458653;28;20037;-71
2023/11/30 11:59:21;;;;;;;1.55;1.55;;;;;;;2.84;100.00;100216.03;10458568;28;20083;-71
2023/11/30 12:04:47;;;;;;;5.28;2.75;;;;;;;4.44;100.00;100209.97;10456987;28;20464;-72
2023/11/30 12:09:54;;;;;;;1.75;1.75;;;;;;;5.33;100.00;100205.88;10456435;28;20056;-72
2023/11/30 12:14:55;;;;;;;1.70;1.70;;;;;;;5.13;100.00;100199.31;10459263;28;20052;-72
2023/11/30 12:19:55;;;;;;;1.63;1.63;;;;;;;4.63;100.00;100200.66;10459430;28;20052;-71
2023/11/30 12:24:55;;;;;;;2.53;2.33;;;;;;;4.59;100.00;100191.28;10456598;28;20489;-71
2023/11/30 12:29:56;;;;;;;3.67;3.47;;;;;;;4.19;100.00;100201.19;10457384;28;20111;-71
2023/11/30 12:34:57;;;;;;;3.88;3.67;;;;;;;4.63;100.00;100197.97;10455735;28;20069;-71
2023/11/30 12:39:58;;;;;;;1.48;1.38;;;;;;;5.16;100.00;100184.69;10456597;28;20033;-71
2023/11/30 12:44:59;;;;;;;2.70;2.50;;;;;;;5.42;100.00;100189.69;10455683;28;20318;-71
2023/11/30 12:49:59;;;;;;;0.70;0.70;;;;;;;5.38;100.00;100191.06;10457453;28;20033;-71
2023/11/30 12:55:00;;;;;;;2.42;2.33;;;;;;;5.06;100.00;100188.44;10456429;28;20476;-71
2023/11/30 13:00:01;;;;;;;0.60;0.60;;;;;;;4.78;100.00;100184.63;10456585;28;20060;-71
2023/11/30 13:05:02;;;;;;;1.23;1.23;;;;;;;4.66;100.00;100192.25;10456330;28;20052;-71
2023/11/30 13:10:02;;;;;;;1.25;1.25;;;;;;;4.40;100.00;100187.19;10456568;28;20123;-71
2023/11/30 13:15:07;;;;;;;0.60;0.60;;;;;;;4.32;100.00;100195.28;10455048;28;20049;-71
2023/11/30 13:20:12;;;;;;;7.75;2.65;;;;;;;4.36;100.00;100194.75;10455371;28;20431;-71
2023/11/30 13:25:13;;;;;;;0.90;0.90;;;;;;;4.26;100.00;100207.53;10455642;28;20033;-71
2023/11/30 13:30:14;;;;;;;0.73;0.73;;;;;;;4.14;100.00;100200.84;10455333;28;20076;-71
2023/11/30 13:35:15;;;;;;;0.75;0.75;;;;;;;3.94;100.00;100198.59;10454427;28;20053;-71
2023/11/30 13:40:16;;;;;;;1.05;1.05;;;;;;;3.82;100.00;100193.75;10454891;28;20036;-71
2023/11/30 13:45:23;;;;;;;0.55;0.55;;;;;;;3.72;100.00;100186.75;10455704;28;20475;-71
2023/11/30 13:50:24;;;;;;;0.60;0.60;;;;;;;3.74;100.00;100197.31;10454896;28;20112;-71
2023/11/30 13:55:24;;;;;;;0.90;0.90;;;;;;;3.76;100.00;100194.44;10454555;28;20384;-71
2023/11/30 14:00:24;;;;;;;1.63;1.63;;;;;;;3.62;100.00;100201.34;10454414;28;20124;-71
2023/11/30 14:05:25;;;;;;;0.77;0.77;;;;;;;3.49;100.00;100199.19;10453177;28;20025;-71
2023/11/30 14:10:27;;;;;;;2.40;2.35;;;;;;;3.47;100.00;100206.53;10454435;28;20041;-71
2023/11/30 14:15:28;;;;;;;1.15;1.15;;;;;;;3.56;100.00;100204.69;10454723;28;20044;-71
2023/11/30 14:20:28;;;;;;;1.55;1.55;;;;;;;3.64;100.00;100191.31;10454200;28;20381;-71
2023/11/30 14:25:29;;;;;;;0.82;0.82;;;;;;;3.68;100.00;100192.63;10454318;28;20063;-71
2023/11/30 14:30:30;;;;;;;0.85;0.85;;;;;;;3.78;100.00;100182.56;10451575;28;20056;-71
2023/11/30 14:35:31;;;;;;;0.98;0.98;;;;;;;3.77;100.00;100191.59;10451778;28;20037;-71
2023/11/30 14:40:32;;;;;;;1.13;1.13;;;;;;;3.65;100.00;100198.31;10452222;28;20334;-71
2023/11/30 14:45:32;;;;;;;16.50;13.85;;;;;;;3.51;100.00;100202.53;10452904;28;20052;-71
2023/11/30 14:50:33;;;;;;;21.25;14.55;;;;;;;3.29;100.00;100192.47;10452332;28;20464;-71
2023/11/30 14:55:33;;;;;;;18.65;14.82;;;;;;;3.16;100.00;100199.19;10451393;28;20117;-71
2023/11/30 15:00:34;;;;;;;21.17;15.65;;;;;;;3.10;100.00;100197.19;10452291;28;20057;-71
2023/11/30 15:05:34;;;;;;;17.10;13.95;;;;;;;3.01;100.00;100198.16;10459615;28;20448;-71
2023/11/30 15:10:34;;;;;;;18.25;14.25;;;;;;;2.85;100.00;100203.50;10458303;28;20136;-70
2023/11/30 15:15:35;;;;;;;15.65;13.45;;;;;;;2.63;100.00;100210.31;10458704;28;20048;-71
2023/11/30 15:20:35;;;;;;;16.30;13.43;;;;;;;2.35;100.00;100215.88;10460176;28;20044;-71
2023/11/30 15:25:36;;;;;;;17.15;14.18;;;;;;;2.17;100.00;100229.34;10459265;28;20396;-71
2023/11/30 15:30:39;;;;;;;20.08;15.75;;;;;;;2.13;100.00;100221.78;10460274;28;20060;-71
2023/11/30 15:35:40;;;;;;;18.40;15.18;;;;;;;2.12;100.00;100214.78;10458091;28;20037;-71
2023/11/30 15:40:40;;;;;;;20.25;15.00;;;;;;;2.00;100.00;100212.38;10459198;28;20037;-71
2023/11/30 15:45:41;;;;;;;15.05;13.50;;;;;;;1.81;100.00;100215.28;10458633;28;20040;-71
2023/11/30 15:50:41;;;;;;;19.15;15.48;;;;;;;1.81;100.00;100217.94;10458740;28;20087;-70
2023/11/30 15:55:41;;;;;;;18.05;16.15;;;;;;;1.85;100.00;100224.63;10458819;28;20088;-71
2023/11/30 16:00:42;;;;;;;20.10;16.38;;;;;;;1.82;100.00;100231.16;10458028;28;20073;-70
2023/11/30 16:05:42;;;;;;;23.10;15.95;;;;;;;1.89;100.00;100231.34;10456528;28;20345;-71
2023/11/30 16:10:43;;;;;;;24.55;17.88;;;;;;;2.08;100.00;100233.78;10459821;28;20041;-71
2023/11/30 16:15:43;;;;;;;24.80;20.92;;;;;;;2.28;100.00;100237.06;10456324;28;20174;-71
2023/11/30 16:20:44;;;;;;;25.85;21.98;;;;;;;2.35;100.00;100237.25;10457600;28;20048;-71
2023/11/30 16:25:44;;;;;;;32.33;25.73;;;;;;;2.34;100.00;100227.56;10458284;28;20029;-71
2023/11/30 16:30:44;;;;;;;28.50;23.73;;;;;;;2.23;100.00;100231.34;10457115;28;20092;-71
2023/11/30 16:35:45;;;;;;;28.05;24.25;;;;;;;2.08;100.00;100236.47;10457539;28;20033;-71
2023/11/30 16:40:45;;;;;;;32.28;23.27;;;;;;;1.82;100.00;100225.81;10457135;28;20544;-71
2023/11/30 16:45:46;;;;;;;39.72;27.98;;;;;;;1.55;100.00;100221.44;10456699;28;20418;-71
2023/11/30 16:50:46;;;;;;;39.20;28.55;;;;;;;1.39;100.00;100235.50;10457036;28;20045;-71
2023/11/30 16:55:47;;;;;;;40.53;29.00;;;;;;;1.23;100.00;100235.38;10456207;28;20032;-71
2023/11/30 17:00:47;;;;;;;41.33;31.13;;;;;;;1.11;100.00;100228.59;10456346;28;20029;-71
2023/11/30 17:05:48;;;;;;;47.10;29.77;;;;;;;1.03;100.00;100223.19;10455920;28;20126;-71
2023/11/30 17:10:49;;;;;;;46.10;32.35;;;;;;;0.89;100.00;100224.53;10456826;28;20076;-71
2023/11/30 17:15:49;;;;;;;45.97;33.05;;;;;;;0.78;100.00;100211.44;10455523;28;20486;-70
2023/11/30 17:20:50;;;;;;;42.85;33.55;;;;;;;0.79;100.00;100215.78;10454157;28;20033;-70
2023/11/30 17:25:50;;;;;;;47.63;32.53;;;;;;;0.97;100.00;100229.13;10455020;28;20464;-71
2023/11/30 17:30:51;;;;;;;44.35;32.08;;;;;;;1.19;100.00;100233.16;10456210;28;20057;-71
2023/11/30 17:35:51;;;;;;;43.40;33.53;;;;;;;1.40;100.00;100236.31;10454661;28;20033;-71
2023/11/30 17:40:51;;;;;;;55.22;36.78;;;;;;;1.55;100.00;100250.78;10455979;28;20037;-71
2023/11/30 17:45:52;;;;;;;50.85;35.33;;;;;;;1.74;100.00;100264.94;10455527;28;20414;-71
2023/11/30 17:50:52;;;;;;;55.42;38.97;;;;;;;1.75;100.00;100278.13;10455363;28;20106;-71
2023/11/30 17:55:53;;;;;;;46.40;34.35;;;;;;;1.59;100.00;100278.00;10455154;28;20040;-71
2023/11/30 18:00:55;;;;;;;52.55;36.35;;;;;;;1.63;100.00;100287.41;10456010;28;20449;-71
2023/11/30 18:05:55;;;;;;;1.00;1.00;;;;;;;1.55;100.00;100281.97;10453659;28;20383;-71
2023/11/30 18:10:56;;;;;;;0.68;0.68;;;;;;;1.45;100.00;100263.41;10455005;28;20146;-71
2023/11/30 18:15:56;;;;;;;0.60;0.60;;;;;;;1.46;100.00;100246.38;10454635;28;20029;-71
2023/11/30 18:20:56;;;;;;;7.10;2.95;;;;;;;1.46;100.00;100237.56;10453498;28;20591;-71
2023/11/30 18:25:57;;;;;;;0.70;0.70;;;;;;;1.44;100.00;100247.56;10454017;28;20044;-71
2023/11/30 18:30:58;;;;;;;0.90;0.90;;;;;;;1.32;100.00;100246.94;10454031;28;20060;-71
2023/11/30 18:35:59;;;;;;;3.03;2.60;;;;;;;1.20;100.00;100248.16;10455952;28;20045;-71
2023/11/30 18:40:59;;;;;;;0.60;0.60;;;;;;;1.02;100.00;100253.50;10461596;28;20446;-71
2023/11/30 18:45:59;;;;;;;0.95;0.95;;;;;;;0.93;100.00;100248.09;10462242;28;20036;-71
2023/11/30 18:51:00;;;;;;;0.88;0.88;;;;;;;0.80;100.00;100249.44;10463396;28;20029;-71
2023/11/30 18:56:00;;;;;;;0.77;0.77;;;;;;;0.64;100.00;100253.63;10462952;28;20476;-71
2023/11/30 19:01:01;;;;;;;1.02;1.02;;;;;;;0.52;100.00;100265.47;10461934;28;20059;-72
2023/11/30 19:06:02;;;;;;;0.70;0.70;;;;;;;0.34;100.00;100256.56;10460453;28;20033;-71
2023/11/30 19:11:02;;;;;;;0.90;0.90;;;;;;;0.27;100.00;100253.66;10462525;28;20058;-71
2023/11/30 19:16:03;;;;;;;0.70;0.70;;;;;;;0.44;100.00;100258.19;10462843;28;20040;-71
2023/11/30 19:21:03;;;;;;;1.90;1.88;;;;;;;0.50;100.00;100269.25;10460915;28;20073;-71
2023/11/30 19:26:06;;;;;;;1.77;1.77;;;;;;;0.57;100.00;100259.69;10461182;28;20060;-71
2023/11/30 19:31:06;;;;;;;0.93;0.93;;;;;;;0.62;100.00;100274.22;10461498;28;20075;-71
2023/11/30 19:36:07;;;;;;;1.63;1.63;;;;;;;0.65;100.00;100273.09;10461615;28;20484;-71
2023/11/30 19:41:08;;;;;;;1.10;1.10;;;;;;;0.68;100.00;100268.31;10460717;28;20118;-72
2023/11/30 19:46:09;;;;;;;1.88;1.80;;;;;;;0.76;100.00;100280.88;10459734;28;20369;-72
2023/11/30 19:51:14;;;;;;;1.00;1.00;;;;;;;0.85;100.00;100284.47;10460107;28;20486;-71
2023/11/30 19:56:15;;;;;;;0.85;0.85;;;;;;;0.87;100.00;100296.69;10460642;28;20119;-71
2023/11/30 20:01:21;;;;;;;1.23;1.23;;;;;;;0.89;100.00;100296.50;10461077;28;20123;-72
2023/11/30 20:06:22;;;;;;;2.35;2.25;;;;;;;0.87;100.00;100298.50;10457950;28;20039;-71
2023/11/30 20:11:22;;;;;;;1.80;1.80;;;;;;;0.91;100.00;100279.38;10459510;28;20411;-72
2023/11/30 20:16:23;;;;;;;1.42;1.40;;;;;;;0.89;100.00;100265.38;10457895;28;20033;-71
2023/11/30 20:21:24;;;;;;;1.00;1.00;;;;;;;0.83;100.00;100258.00;10460195;28;20461;-72
2023/11/30 20:26:25;;;;;;;0.63;0.63;;;;;;;0.72;100.00;100254.69;10457746;28;20029;-72
2023/11/30 20:31:25;;;;;;;0.80;0.80;;;;;;;0.63;100.00;100265.25;10458406;28;20439;-72
2023/11/30 20:36:26;;;;;;;0.88;0.88;;;;;;;0.48;100.00;100264.09;10458075;28;20059;-72
2023/11/30 20:41:26;;;;;;;1.55;1.55;;;;;;;0.37;100.00;100264.25;10458432;28;20048;-72
2023/11/30 20:46:27;;;;;;;1.80;1.80;;;;;;;0.25;100.00;100278.75;10456813;28;20051;-72
2023/11/30 20:51:27;;;;;;;1.45;1.45;;;;;;;0.08;100.00;100291.84;10457776;28;20106;-72
2023/11/30 20:56:27;;;;;;;0.90;0.90;;;;;;;0.06;100.00;100285.81;10456606;28;20041;-72
2023/11/30 21:01:29;;;;;;;2.05;1.95;;;;;;;-0.04;100.00;100296.50;10457086;28;20072;-72
2023/11/30 21:06:29;;;;;;;1.20;1.20;;;;;;;-0.07;100.00;100296.78;10457344;28;20103;-71
2023/11/30 21:11:30;;;;;;;0.70;0.70;;;;;;;0.15;100.00;100292.09;10457838;28;20041;-71
2023/11/30 21:16:30;;;;;;;2.55;2.45;;;;;;;0.26;100.00;100301.75;10457036;28;20036;-71
2023/11/30 21:21:30;;;;;;;0.90;0.90;;;;;;;0.34;100.00;100316.00;10456197;28;20059;-71
2023/11/30 21:26:31;;;;;;;0.70;0.70;;;;;;;0.33;100.00;100329.47;10455234;28;20037;-71
2023/11/30 21:31:31;;;;;;;0.85;0.85;;;;;;;0.28;100.00;100337.03;10457635;28;20412;-71
2023/11/30 21:36:32;;;;;;;0.68;0.68;;;;;;;0.40;100.00;100339.38;10456352;28;20037;-71
2023/11/30 21:41:32;;;;;;;0.90;0.90;;;;;;;0.45;100.00;100358.44;10456609;28;20084;-71
2023/11/30 21:46:36;;;;;;;0.88;0.88;;;;;;;0.51;100.00;100357.03;10456990;28;20041;-72
2023/11/30 21:51:36;;;;;;;2.00;2.00;;;;;;;0.54;100.00;100347.88;10455615;28;20029;-70
2023/11/30 21:56:36;;;;;;;5.57;5.13;;;;;;;0.56;100.00;100349.41;10455573;28;20420;-71
2023/11/30 22:01:37;;;;;;;0.95;0.95;;;;;;;0.63;100.00;100353.16;10456750;28;20041;-71
2023/11/30 22:06:37;;;;;;;1.23;1.23;;;;;;;0.56;100.00;100346.75;10455397;28;20099;-71
2023/11/30 22:11:42;;;;;;;0.80;0.80;;;;;;;0.54;100.00;100370.03;10455667;28;20044;-71
2023/11/30 22:16:42;;;;;;;0.80;0.80;;;;;;;0.50;100.00;100354.50;10454183;28;20441;-71
2023/11/30 22:21:43;;;;;;;0.90;0.90;;;;;;;0.52;100.00;100353.38;10454793;28;20041;-71
2023/11/30 22:26:43;;;;;;;0.80;0.80;;;;;;;0.49;100.00;100361.66;10453082;28;20469;-71
2023/11/30 22:31:43;;;;;;;1.50;1.50;;;;;;;0.48;100.00;100357.31;10454309;28;20053;-71
2023/11/30 22:36:44;;;;;;;1.00;1.00;;;;;;;0.41;100.00;100353.53;10455664;28;20083;-71
2023/11/30 22:41:45;;;;;;;0.63;0.63;;;;;;;0.34;100.00;100361.28;10453496;28;20110;-71
2023/11/30 22:46:46;;;;;;;2.60;2.40;;;;;;;0.42;100.00;100365.91;10454904;28;20043;-71
2023/11/30 22:51:47;;;;;;;1.23;1.23;;;;;;;0.43;100.00;100360.41;10453807;28;20029;-72
2023/11/30 22:56:48;;;;;;;2.85;2.75;;;;;;;0.38;100.00;100361.81;10452856;28;20056;-71